< Typhoon 201805 2018 Season Typhoon 201807 >
Typhoon 201806 (GAEMI)
General InformationTrack Information on Google MapsDetailed Wind InformationForecast History on Google MapsAccess Analytics MapList of All Images || NewsDisaster Info.WeblogTrackbackTyphoon FrontTwiphoonTyphoon Now!Typhoon ImaginationJMA Disaster Info. XMLResourceGoogle EarthGE AnimationAtom FeedGeoJSON
Detalied Best Track (Time Zone = UTC)
Year Month Day Hour Lat. Long. Pressure (hPa) Wind (kt) Class Image Chart
2018 6 13 12 21.6 117.1 996 0 2 Image Chart
2018 6 13 18 21.7 117.9 996 0 2 Image Chart
2018 6 14 00 21.8 118.6 996 0 2 Image Chart
2018 6 14 06 22.0 119.2 994 0 2 Image Chart
2018 6 14 12 22.4 119.8 994 0 2 Image Chart
2018 6 14 18 22.6 120.1 994 0 2 Image Chart
2018 6 15 00 22.7 120.2 994 35 3 Image Chart
2018 6 15 06 23.3 122.2 994 35 3 Image Chart
2018 6 15 12 24.9 123.9 994 35 3 Image Chart
2018 6 15 18 25.2 125.1 994 40 3 Image Chart
2018 6 16 00 26.3 127.1 992 40 3 Image Chart
2018 6 16 06 26.8 128.9 990 45 3 Image Chart
2018 6 16 12 27.2 130.8 992 40 3 Image Chart
2018 6 16 18 27.7 131.5 992 40 3 Image Chart
2018 6 17 00 28.5 132.1 996 0 6 Image Chart
2018 6 17 06 29.4 132.7 996 0 6 Image Chart
2018 6 17 12 30.0 133.5 996 0 6 Image Chart
2018 6 17 18 30.5 134.2 996 0 6 Image Chart
2018 6 18 00 31.2 135.3 996 0 6 Image Chart
2018 6 18 06 31.7 137.2 996 0 6 Image Chart
2018 6 18 12 32.0 139.0 998 0 6 Image Chart
2018 6 18 18 32.6 141.4 998 0 6 Image Chart
2018 6 19 00 33.7 144.0 998 0 6 Image Chart
2018 6 19 06 34.7 146.2 996 0 6 Image Chart
2018 6 19 12 35.8 148.1 992 0 6 Image Chart
2018 6 19 18 36.1 150.2 994 0 6 Image Chart
2018 6 20 00 36.7 151.0 996 0 6 Image Chart
2018 6 20 06 37.3 151.5 998 0 6 Image Chart
2018 6 20 12 38.1 152.1 1000 0 6 Image Chart
2018 6 20 18 38.7 152.5 1000 0 6 Image Chart
2018 6 21 00 39.3 153.2 1002 0 6 Image Chart
2018 6 21 06 40.0 154.1 1002 0 6 Image Chart
2018 6 21 12 41.0 154.1 998 0 6 Image Chart
Japan Meteorological Agency Best Track Data | Correction Date : 2018-08-13
< Typhoon 201805 2018 Season Typhoon 201807 >

Help